sensor_id;sensor_type;location;lat;lon;timestamp;pressure;altitude;pressure_sealevel;temperature;humidity
73941;BME280;62294;48.554;10.202;2023-07-02T00:00:05;90473.84;;;16.12;100.00
73941;BME280;62294;48.554;10.202;2023-07-02T00:02:32;90471.19;;;15.98;100.00
73941;BME280;62294;48.554;10.202;2023-07-02T00:05:20;90421.06;;;16.02;100.00
73941;BME280;62294;48.554;10.202;2023-07-02T00:07:47;90353.38;;;16.05;100.00
73941;BME280;62294;48.554;10.202;2023-07-02T00:10:13;90333.13;;;16.00;100.00
73941;BME280;62294;48.554;10.202;2023-07-02T00:12:40;90307.53;;;15.96;100.00
73941;BME280;62294;48.554;10.202;2023-07-02T00:15:07;90306.06;;;15.88;100.00
73941;BME280;62294;48.554;10.202;2023-07-02T00:17:33;90267.38;;;15.99;100.00
73941;BME280;62294;48.554;10.202;2023-07-02T00:20:00;90247.50;;;15.97;100.00
73941;BME280;62294;48.554;10.202;2023-07-02T00:22:33;90216.47;;;16.03;100.00
73941;BME280;62294;48.554;10.202;2023-07-02T00:25:03;90199.56;;;16.16;100.00
73941;BME280;62294;48.554;10.202;2023-07-02T00:27:29;90141.91;;;16.49;100.00
73941;BME280;62294;48.554;10.202;2023-07-02T00:29:56;90114.88;;;16.74;100.00
73941;BME280;62294;48.554;10.202;2023-07-02T00:32:23;90145.88;;;16.75;100.00
73941;BME280;62294;48.554;10.202;2023-07-02T00:34:50;90267.69;;;16.12;100.00
73941;BME280;62294;48.554;10.202;2023-07-02T00:37:16;90334.41;;;15.68;100.00
73941;BME280;62294;48.554;10.202;2023-07-02T00:39:43;90429.63;;;15.30;100.00
73941;BME280;62294;48.554;10.202;2023-07-02T00:42:11;90448.31;;;15.37;100.00
73941;BME280;62294;48.554;10.202;2023-07-02T00:44:40;90511.72;;;15.15;100.00
73941;BME280;62294;48.554;10.202;2023-07-02T00:47:08;90554.88;;;15.03;100.00
73941;BME280;62294;48.554;10.202;2023-07-02T00:49:35;90563.63;;;15.00;100.00
73941;BME280;62294;48.554;10.202;2023-07-02T00:52:02;90588.44;;;14.93;100.00
73941;BME280;62294;48.554;10.202;2023-07-02T00:54:29;90586.91;;;14.89;100.00
73941;BME280;62294;48.554;10.202;2023-07-02T00:56:57;90583.88;;;14.94;100.00
73941;BME280;62294;48.554;10.202;2023-07-02T00:59:32;90582.31;;;14.93;100.00
73941;BME280;62294;48.554;10.202;2023-07-02T01:02:02;90564.41;;;15.01;100.00
73941;BME280;62294;48.554;10.202;2023-07-02T01:04:29;90560.22;;;15.03;100.00
73941;BME280;62294;48.554;10.202;2023-07-02T01:06:56;90552.59;;;15.16;100.00
73941;BME280;62294;48.554;10.202;2023-07-02T01:09:28;90532.34;;;15.29;100.00
73941;BME280;62294;48.554;10.202;2023-07-02T01:11:57;90536.59;;;15.26;100.00
73941;BME280;62294;48.554;10.202;2023-07-02T01:14:41;90530.81;;;15.24;100.00
73941;BME280;62294;48.554;10.202;2023-07-02T01:17:08;90534.66;;;15.23;100.00
73941;BME280;62294;48.554;10.202;2023-07-02T01:24:45;90590.03;;;15.12;100.00
73941;BME280;62294;48.554;10.202;2023-07-02T01:27:16;90635.75;;;14.86;100.00
73941;BME280;62294;48.554;10.202;2023-07-02T01:29:43;90652.84;;;14.71;100.00
73941;BME280;62294;48.554;10.202;2023-07-02T01:32:13;90653.94;;;14.63;100.00
73941;BME280;62294;48.554;10.202;2023-07-02T01:34:40;90618.13;;;14.71;100.00
73941;BME280;62294;48.554;10.202;2023-07-02T01:37:07;90575.44;;;14.85;100.00
73941;BME280;62294;48.554;10.202;2023-07-02T01:39:35;90526.63;;;15.13;100.00
73941;BME280;62294;48.554;10.202;2023-07-02T01:42:13;90516.31;;;15.11;100.00
73941;BME280;62294;48.554;10.202;2023-07-02T01:44:46;90542.63;;;14.99;100.00
73941;BME280;62294;48.554;10.202;2023-07-02T01:47:13;90549.50;;;14.96;100.00
73941;BME280;62294;48.554;10.202;2023-07-02T01:49:39;90548.72;;;14.96;100.00
73941;BME280;62294;48.554;10.202;2023-07-02T01:52:06;90553.31;;;14.91;100.00
73941;BME280;62294;48.554;10.202;2023-07-02T01:54:35;90556.75;;;14.96;100.00
73941;BME280;62294;48.554;10.202;2023-07-02T01:57:01;90538.47;;;15.12;100.00
73941;BME280;62294;48.554;10.202;2023-07-02T01:59:28;90567.41;;;14.88;100.00
73941;BME280;62294;48.554;10.202;2023-07-02T02:01:55;90576.59;;;14.91;100.00
73941;BME280;62294;48.554;10.202;2023-07-02T02:04:21;90597.16;;;14.80;100.00
73941;BME280;62294;48.554;10.202;2023-07-02T02:06:48;90584.97;;;14.86;100.00
73941;BME280;62294;48.554;10.202;2023-07-02T02:09:15;90588.78;;;14.85;100.00
73941;BME280;62294;48.554;10.202;2023-07-02T02:11:48;90612.00;;;14.67;100.00
73941;BME280;62294;48.554;10.202;2023-07-02T02:14:15;90634.06;;;14.53;100.00
73941;BME280;62294;48.554;10.202;2023-07-02T02:16:43;90659.47;;;14.30;100.00
73941;BME280;62294;48.554;10.202;2023-07-02T02:19:11;90654.91;;;14.34;100.00
73941;BME280;62294;48.554;10.202;2023-07-02T02:21:40;90627.53;;;14.47;100.00
73941;BME280;62294;48.554;10.202;2023-07-02T02:24:06;90607.34;;;14.53;100.00
73941;BME280;62294;48.554;10.202;2023-07-02T02:26:34;90598.22;;;14.58;100.00
73941;BME280;62294;48.554;10.202;2023-07-02T02:29:01;90594.00;;;14.60;100.00
73941;BME280;62294;48.554;10.202;2023-07-02T02:31:29;90589.44;;;14.61;100.00
73941;BME280;62294;48.554;10.202;2023-07-02T02:33:56;90577.28;;;14.67;100.00
73941;BME280;62294;48.554;10.202;2023-07-02T02:36:22;90560.53;;;14.80;100.00
73941;BME280;62294;48.554;10.202;2023-07-02T02:38:49;90561.66;;;14.76;100.00
73941;BME280;62294;48.554;10.202;2023-07-02T02:41:16;90559.34;;;14.74;100.00
73941;BME280;62294;48.554;10.202;2023-07-02T02:43:42;90552.88;;;14.79;100.00
73941;BME280;62294;48.554;10.202;2023-07-02T02:46:11;90582.59;;;14.63;100.00
73941;BME280;62294;48.554;10.202;2023-07-02T02:48:38;90601.66;;;14.62;100.00
73941;BME280;62294;48.554;10.202;2023-07-02T02:51:04;90583.03;;;14.79;100.00
73941;BME280;62294;48.554;10.202;2023-07-02T02:53:31;90598.66;;;14.70;100.00
73941;BME280;62294;48.554;10.202;2023-07-02T02:55:58;90625.31;;;14.60;100.00
73941;BME280;62294;48.554;10.202;2023-07-02T02:58:24;90658.06;;;14.50;100.00
73941;BME280;62294;48.554;10.202;2023-07-02T03:00:51;90652.78;;;14.57;100.00
73941;BME280;62294;48.554;10.202;2023-07-02T03:03:18;90652.78;;;14.57;100.00
73941;BME280;62294;48.554;10.202;2023-07-02T03:05:45;90680.94;;;14.44;100.00
73941;BME280;62294;48.554;10.202;2023-07-02T03:08:14;90675.59;;;14.44;100.00
73941;BME280;62294;48.554;10.202;2023-07-02T03:10:41;90691.56;;;14.37;100.00
73941;BME280;62294;48.554;10.202;2023-07-02T03:13:08;90701.09;;;14.34;100.00
73941;BME280;62294;48.554;10.202;2023-07-02T03:15:35;90720.41;;;14.20;100.00
73941;BME280;62294;48.554;10.202;2023-07-02T03:18:01;90740.22;;;14.19;100.00
73941;BME280;62294;48.554;10.202;2023-07-02T03:20:28;90725.69;;;14.17;100.00
73941;BME280;62294;48.554;10.202;2023-07-02T03:22:55;90747.75;;;14.10;100.00
73941;BME280;62294;48.554;10.202;2023-07-02T03:25:21;90748.88;;;14.06;100.00
73941;BME280;62294;48.554;10.202;2023-07-02T03:27:48;90757.56;;;13.99;100.00
73941;BME280;62294;48.554;10.202;2023-07-02T03:30:14;90770.44;;;13.90;100.00
73941;BME280;62294;48.554;10.202;2023-07-02T03:32:41;90768.88;;;13.86;100.00
73941;BME280;62294;48.554;10.202;2023-07-02T03:35:08;90786.22;;;13.69;100.00
73941;BME280;62294;48.554;10.202;2023-07-02T03:37:35;90777.09;;;13.67;100.00
73941;BME280;62294;48.554;10.202;2023-07-02T03:40:01;90736.00;;;13.75;100.00
73941;BME280;62294;48.554;10.202;2023-07-02T03:42:28;90719.28;;;13.81;100.00
73941;BME280;62294;48.554;10.202;2023-07-02T03:44:55;90666.13;;;14.06;100.00
73941;BME280;62294;48.554;10.202;2023-07-02T03:47:22;90623.63;;;14.31;100.00
73941;BME280;62294;48.554;10.202;2023-07-02T03:49:48;90587.13;;;14.49;100.00
73941;BME280;62294;48.554;10.202;2023-07-02T03:52:16;90558.16;;;14.65;100.00
73941;BME280;62294;48.554;10.202;2023-07-02T03:54:42;90526.16;;;14.79;100.00
73941;BME280;62294;48.554;10.202;2023-07-02T03:57:09;90517.03;;;14.87;100.00
73941;BME280;62294;48.554;10.202;2023-07-02T03:59:35;90511.69;;;14.98;100.00
73941;BME280;62294;48.554;10.202;2023-07-02T04:02:02;90513.63;;;15.04;100.00
73941;BME280;62294;48.554;10.202;2023-07-02T04:04:29;90531.19;;;15.05;100.00
73941;BME280;62294;48.554;10.202;2023-07-02T04:06:56;90541.50;;;15.07;100.00
73941;BME280;62294;48.554;10.202;2023-07-02T04:09:23;90548.75;;;15.13;100.00
73941;BME280;62294;48.554;10.202;2023-07-02T04:11:49;90545.34;;;15.20;100.00
73941;BME280;62294;48.554;10.202;2023-07-02T04:14:16;90568.25;;;15.24;100.00
73941;BME280;62294;48.554;10.202;2023-07-02T04:16:43;90584.69;;;15.23;100.00
73941;BME280;62294;48.554;10.202;2023-07-02T04:19:11;90596.16;;;15.23;100.00
73941;BME280;62294;48.554;10.202;2023-07-02T04:21:38;90591.59;;;15.31;100.00
73941;BME280;62294;48.554;10.202;2023-07-02T04:24:05;90600.38;;;15.31;100.00
73941;BME280;62294;48.554;10.202;2023-07-02T04:26:32;90647.72;;;15.24;100.00
73941;BME280;62294;48.554;10.202;2023-07-02T04:29:19;90642.41;;;15.41;100.00
73941;BME280;62294;48.554;10.202;2023-07-02T04:31:45;90681.75;;;15.30;100.00
73941;BME280;62294;48.554;10.202;2023-07-02T04:34:12;90723.31;;;15.14;100.00
73941;BME280;62294;48.554;10.202;2023-07-02T04:36:38;90727.94;;;15.27;100.00
73941;BME280;62294;48.554;10.202;2023-07-02T04:39:05;90716.53;;;15.41;100.00
73941;BME280;62294;48.554;10.202;2023-07-02T04:41:32;90721.16;;;15.47;100.00
73941;BME280;62294;48.554;10.202;2023-07-02T04:43:58;90728.84;;;15.52;100.00
73941;BME280;62294;48.554;10.202;2023-07-02T04:46:25;90760.88;;;15.42;100.00
73941;BME280;62294;48.554;10.202;2023-07-02T04:48:52;90758.22;;;15.45;100.00
73941;BME280;62294;48.554;10.202;2023-07-02T04:51:20;90719.69;;;15.53;100.00
73941;BME280;62294;48.554;10.202;2023-07-02T04:53:47;90725.41;;;15.59;100.00
73941;BME280;62294;48.554;10.202;2023-07-02T04:56:13;90728.88;;;15.59;100.00
73941;BME280;62294;48.554;10.202;2023-07-02T04:58:40;90738.03;;;15.66;100.00
73941;BME280;62294;48.554;10.202;2023-07-02T05:01:07;90751.44;;;15.69;100.00
73941;BME280;62294;48.554;10.202;2023-07-02T05:03:33;90818.16;;;15.37;100.00
73941;BME280;62294;48.554;10.202;2023-07-02T05:06:00;90847.22;;;15.39;100.00
73941;BME280;62294;48.554;10.202;2023-07-02T05:08:27;90872.13;;;15.50;100.00
73941;BME280;62294;48.554;10.202;2023-07-02T05:10:53;90874.50;;;15.62;100.00
73941;BME280;62294;48.554;10.202;2023-07-02T05:13:19;90913.09;;;15.57;100.00
73941;BME280;62294;48.554;10.202;2023-07-02T05:15:46;90974.47;;;15.43;100.00
73941;BME280;62294;48.554;10.202;2023-07-02T05:18:13;91006.53;;;15.36;100.00
73941;BME280;62294;48.554;10.202;2023-07-02T05:20:39;90997.59;;;15.62;100.00
73941;BME280;62294;48.554;10.202;2023-07-02T05:23:06;91053.94;;;15.39;100.00
73941;BME280;62294;48.554;10.202;2023-07-02T05:25:33;91060.56;;;15.52;100.00
73941;BME280;62294;48.554;10.202;2023-07-02T05:28:00;91127.59;;;15.33;100.00
73941;BME280;62294;48.554;10.202;2023-07-02T05:30:27;91137.38;;;15.52;100.00
73941;BME280;62294;48.554;10.202;2023-07-02T05:32:53;91142.16;;;15.73;100.00
73941;BME280;62294;48.554;10.202;2023-07-02T05:35:20;91206.19;;;15.51;100.00
73941;BME280;62294;48.554;10.202;2023-07-02T05:37:46;91256.22;;;15.21;100.00
73941;BME280;62294;48.554;10.202;2023-07-02T05:40:13;91243.97;;;15.46;100.00
73941;BME280;62294;48.554;10.202;2023-07-02T05:42:43;91268.22;;;15.34;100.00
73941;BME280;62294;48.554;10.202;2023-07-02T05:45:09;91277.88;;;15.42;100.00
73941;BME280;62294;48.554;10.202;2023-07-02T05:47:36;91284.69;;;15.36;100.00
73941;BME280;62294;48.554;10.202;2023-07-02T05:50:04;91291.19;;;15.35;100.00
73941;BME280;62294;48.554;10.202;2023-07-02T05:52:30;91286.84;;;15.53;100.00
73941;BME280;62294;48.554;10.202;2023-07-02T05:54:57;91319.66;;;15.47;100.00
73941;BME280;62294;48.554;10.202;2023-07-02T05:57:24;91320.16;;;15.56;100.00
73941;BME280;62294;48.554;10.202;2023-07-02T05:59:50;91327.44;;;15.59;100.00
73941;BME280;62294;48.554;10.202;2023-07-02T06:02:17;91341.19;;;15.57;100.00
73941;BME280;62294;48.554;10.202;2023-07-02T06:04:43;91356.81;;;15.55;100.00
73941;BME280;62294;48.554;10.202;2023-07-02T06:07:10;91369.81;;;15.53;100.00
73941;BME280;62294;48.554;10.202;2023-07-02T06:09:37;91378.16;;;15.52;100.00
73941;BME280;62294;48.554;10.202;2023-07-02T06:12:03;91396.47;;;15.46;100.00
73941;BME280;62294;48.554;10.202;2023-07-02T06:14:30;91406.28;;;15.42;100.00
73941;BME280;62294;48.554;10.202;2023-07-02T06:16:56;91423.66;;;15.29;100.00
73941;BME280;62294;48.554;10.202;2023-07-02T06:19:24;91399.13;;;15.46;100.00
73941;BME280;62294;48.554;10.202;2023-07-02T06:21:50;91356.69;;;15.75;100.00
73941;BME280;62294;48.554;10.202;2023-07-02T06:24:17;91221.50;;;16.82;100.00
73941;BME280;62294;48.554;10.202;2023-07-02T06:26:43;91007.38;;;18.75;100.00
73941;BME280;62294;48.554;10.202;2023-07-02T06:29:10;91137.03;;;19.35;100.00
73941;BME280;62294;48.554;10.202;2023-07-02T06:31:36;91366.00;;;20.39;100.00
73941;BME280;62294;48.554;10.202;2023-07-02T06:34:03;91670.41;;;21.77;100.00
73941;BME280;62294;48.554;10.202;2023-07-02T06:36:30;92240.50;;;21.45;100.00
73941;BME280;62294;48.554;10.202;2023-07-02T06:38:56;92542.47;;;21.99;100.00
73941;BME280;62294;48.554;10.202;2023-07-02T06:41:23;92775.91;;;22.84;100.00
73941;BME280;62294;48.554;10.202;2023-07-02T06:43:50;93063.88;;;22.42;100.00
73941;BME280;62294;48.554;10.202;2023-07-02T06:46:17;93378.34;;;22.32;100.00
73941;BME280;62294;48.554;10.202;2023-07-02T06:48:44;93446.41;;;22.69;100.00
73941;BME280;62294;48.554;10.202;2023-07-02T06:51:11;93614.22;;;22.66;100.00
73941;BME280;62294;48.554;10.202;2023-07-02T06:53:41;93789.75;;;21.41;100.00
73941;BME280;62294;48.554;10.202;2023-07-02T06:56:08;93734.22;;;20.55;100.00
73941;BME280;62294;48.554;10.202;2023-07-02T06:58:36;93657.34;;;19.92;100.00
73941;BME280;62294;48.554;10.202;2023-07-02T07:01:02;93545.91;;;20.24;100.00
73941;BME280;62294;48.554;10.202;2023-07-02T07:03:29;93490.63;;;20.58;100.00
73941;BME280;62294;48.554;10.202;2023-07-02T07:05:56;93525.19;;;20.52;100.00
73941;BME280;62294;48.554;10.202;2023-07-02T07:08:22;93561.97;;;20.21;100.00
73941;BME280;62294;48.554;10.202;2023-07-02T07:10:49;93565.00;;;19.71;100.00
73941;BME280;62294;48.554;10.202;2023-07-02T07:13:17;93500.88;;;19.89;100.00
73941;BME280;62294;48.554;10.202;2023-07-02T07:15:43;93500.44;;;19.50;100.00
73941;BME280;62294;48.554;10.202;2023-07-02T07:18:10;93426.69;;;19.55;100.00
73941;BME280;62294;48.554;10.202;2023-07-02T07:20:39;93343.19;;;20.22;100.00
73941;BME280;62294;48.554;10.202;2023-07-02T07:23:06;93489.19;;;19.60;100.00
73941;BME280;62294;48.554;10.202;2023-07-02T07:25:32;93494.03;;;19.43;100.00
73941;BME280;62294;48.554;10.202;2023-07-02T07:28:01;93480.66;;;19.46;100.00
73941;BME280;62294;48.554;10.202;2023-07-02T07:30:27;93457.88;;;19.80;100.00
73941;BME280;62294;48.554;10.202;2023-07-02T07:32:55;93433.88;;;18.94;100.00
73941;BME280;62294;48.554;10.202;2023-07-02T07:35:23;93316.41;;;20.02;100.00
73941;BME280;62294;48.554;10.202;2023-07-02T07:37:49;93387.47;;;19.81;100.00
73941;BME280;62294;48.554;10.202;2023-07-02T07:40:16;93400.94;;;20.77;100.00
73941;BME280;62294;48.554;10.202;2023-07-02T07:42:43;93517.91;;;21.83;100.00
73941;BME280;62294;48.554;10.202;2023-07-02T07:45:10;93724.09;;;20.76;100.00
73941;BME280;62294;48.554;10.202;2023-07-02T07:47:38;93793.97;;;19.18;100.00
73941;BME280;62294;48.554;10.202;2023-07-02T07:50:06;93602.03;;;19.29;100.00
73941;BME280;62294;48.554;10.202;2023-07-02T07:52:38;93580.59;;;19.33;100.00
73941;BME280;62294;48.554;10.202;2023-07-02T07:55:05;93609.41;;;19.20;100.00
73941;BME280;62294;48.554;10.202;2023-07-02T07:57:36;93513.63;;;18.86;100.00
73941;BME280;62294;48.554;10.202;2023-07-02T08:00:04;93466.72;;;18.75;100.00
73941;BME280;62294;48.554;10.202;2023-07-02T08:02:33;93432.03;;;19.79;100.00
73941;BME280;62294;48.554;10.202;2023-07-02T08:05:00;93518.84;;;20.09;100.00
73941;BME280;62294;48.554;10.202;2023-07-02T08:07:26;93554.09;;;20.40;100.00
73941;BME280;62294;48.554;10.202;2023-07-02T08:09:54;93592.19;;;21.02;100.00
73941;BME280;62294;48.554;10.202;2023-07-02T08:12:21;93681.75;;;21.16;100.00
73941;BME280;62294;48.554;10.202;2023-07-02T08:14:47;93648.88;;;22.60;100.00
73941;BME280;62294;48.554;10.202;2023-07-02T08:17:14;93851.53;;;23.05;100.00
73941;BME280;62294;48.554;10.202;2023-07-02T08:19:40;94089.41;;;21.54;100.00
73941;BME280;62294;48.554;10.202;2023-07-02T08:22:07;93981.81;;;22.44;100.00
73941;BME280;62294;48.554;10.202;2023-07-02T08:24:33;94069.03;;;21.45;100.00
73941;BME280;62294;48.554;10.202;2023-07-02T08:27:01;93983.28;;;21.21;100.00
73941;BME280;62294;48.554;10.202;2023-07-02T08:29:29;93919.94;;;22.31;100.00
73941;BME280;62294;48.554;10.202;2023-07-02T08:31:56;94034.78;;;22.45;100.00
73941;BME280;62294;48.554;10.202;2023-07-02T08:34:24;94097.97;;;24.47;100.00
73941;BME280;62294;48.554;10.202;2023-07-02T08:36:50;94311.06;;;25.27;100.00
73941;BME280;62294;48.554;10.202;2023-07-02T08:39:18;94530.78;;;25.50;100.00
73941;BME280;62294;48.554;10.202;2023-07-02T08:41:45;94603.50;;;23.23;100.00
73941;BME280;62294;48.554;10.202;2023-07-02T08:44:14;94552.72;;;23.65;100.00
73941;BME280;62294;48.554;10.202;2023-07-02T08:46:42;94619.03;;;23.02;100.00
73941;BME280;62294;48.554;10.202;2023-07-02T08:49:09;94600.47;;;22.42;100.00
73941;BME280;62294;48.554;10.202;2023-07-02T08:51:36;94619.00;;;22.61;100.00
73941;BME280;62294;48.554;10.202;2023-07-02T08:54:03;94601.44;;;22.87;100.00
73941;BME280;62294;48.554;10.202;2023-07-02T08:56:29;94639.69;;;23.48;100.00
73941;BME280;62294;48.554;10.202;2023-07-02T08:58:56;94669.84;;;24.24;100.00
73941;BME280;62294;48.554;10.202;2023-07-02T09:01:23;94625.56;;;23.99;100.00
73941;BME280;62294;48.554;10.202;2023-07-02T09:03:50;93851.34;;;22.98;100.00
73941;BME280;62294;48.554;10.202;2023-07-02T09:06:18;93581.31;;;23.21;100.00
73941;BME280;62294;48.554;10.202;2023-07-02T09:08:44;93558.91;;;22.16;100.00
73941;BME280;62294;48.554;10.202;2023-07-02T09:11:15;93578.88;;;22.78;100.00
73941;BME280;62294;48.554;10.202;2023-07-02T09:19:01;92962.78;;;23.64;100.00
73941;BME280;62294;48.554;10.202;2023-07-02T09:24:31;92701.28;;;23.51;100.00
73941;BME280;62294;48.554;10.202;2023-07-02T09:27:00;92590.59;;;22.30;100.00
73941;BME280;62294;48.554;10.202;2023-07-02T09:29:34;92612.81;;;22.06;100.00
73941;BME280;62294;48.554;10.202;2023-07-02T09:32:03;92644.81;;;21.97;100.00
73941;BME280;62294;48.554;10.202;2023-07-02T09:34:34;92640.78;;;23.29;100.00
73941;BME280;62294;48.554;10.202;2023-07-02T09:37:03;92684.59;;;22.00;100.00
73941;BME280;62294;48.554;10.202;2023-07-02T09:39:33;92664.31;;;23.18;100.00
73941;BME280;62294;48.554;10.202;2023-07-02T09:42:02;92647.91;;;22.90;100.00
73941;BME280;62294;48.554;10.202;2023-07-02T09:44:31;92538.75;;;24.32;100.00
73941;BME280;62294;48.554;10.202;2023-07-02T09:47:08;92424.81;;;23.97;100.00
73941;BME280;62294;48.554;10.202;2023-07-02T09:49:37;92535.19;;;25.75;100.00
73941;BME280;62294;48.554;10.202;2023-07-02T09:52:08;92657.75;;;26.81;100.00
73941;BME280;62294;48.554;10.202;2023-07-02T09:54:36;92613.19;;;24.42;100.00
73941;BME280;62294;48.554;10.202;2023-07-02T09:57:04;92317.84;;;22.57;100.00
73941;BME280;62294;48.554;10.202;2023-07-02T09:59:30;92365.63;;;24.89;100.00
73941;BME280;62294;48.554;10.202;2023-07-02T10:01:58;92622.47;;;26.01;100.00
73941;BME280;62294;48.554;10.202;2023-07-02T10:04:24;92799.31;;;26.23;100.00
73941;BME280;62294;48.554;10.202;2023-07-02T10:09:20;93201.44;;;26.12;100.00
73941;BME280;62294;48.554;10.202;2023-07-02T10:11:47;93040.63;;;25.30;100.00
73941;BME280;62294;48.554;10.202;2023-07-02T10:14:14;93255.53;;;26.27;100.00
73941;BME280;62294;48.554;10.202;2023-07-02T10:16:55;93185.66;;;24.50;100.00
73941;BME280;62294;48.554;10.202;2023-07-02T10:19:21;92807.13;;;22.74;100.00
73941;BME280;62294;48.554;10.202;2023-07-02T10:22:02;92759.53;;;23.82;100.00
73941;BME280;62294;48.554;10.202;2023-07-02T10:24:29;92885.19;;;24.79;100.00
73941;BME280;62294;48.554;10.202;2023-07-02T10:27:00;93110.16;;;25.31;100.00
73941;BME280;62294;48.554;10.202;2023-07-02T10:29:28;92860.03;;;26.02;100.00
73941;BME280;62294;48.554;10.202;2023-07-02T10:31:56;93058.63;;;25.70;100.00
73941;BME280;62294;48.554;10.202;2023-07-02T10:34:34;93012.75;;;23.30;100.00
73941;BME280;62294;48.554;10.202;2023-07-02T10:37:02;92971.22;;;25.86;100.00
73941;BME280;62294;48.554;10.202;2023-07-02T10:39:30;93409.06;;;25.17;100.00
73941;BME280;62294;48.554;10.202;2023-07-02T10:42:23;93482.06;;;26.50;100.00
73941;BME280;62294;48.554;10.202;2023-07-02T10:44:51;93381.34;;;25.42;100.00
73941;BME280;62294;48.554;10.202;2023-07-02T10:47:19;93570.00;;;25.00;100.00
73941;BME280;62294;48.554;10.202;2023-07-02T10:49:45;93651.50;;;25.26;100.00
73941;BME280;62294;48.554;10.202;2023-07-02T10:52:12;93412.56;;;23.69;100.00
73941;BME280;62294;48.554;10.202;2023-07-02T10:54:43;93194.69;;;25.12;100.00
73941;BME280;62294;48.554;10.202;2023-07-02T10:57:12;93472.53;;;24.69;100.00
73941;BME280;62294;48.554;10.202;2023-07-02T10:59:40;93548.88;;;25.90;100.00
73941;BME280;62294;48.554;10.202;2023-07-02T11:02:06;93457.19;;;25.13;100.00
73941;BME280;62294;48.554;10.202;2023-07-02T11:04:34;93769.88;;;26.06;100.00
73941;BME280;62294;48.554;10.202;2023-07-02T11:07:02;93811.59;;;25.31;100.00
73941;BME280;62294;48.554;10.202;2023-07-02T11:09:29;93878.13;;;26.13;100.00
73941;BME280;62294;48.554;10.202;2023-07-02T11:11:57;93939.88;;;25.82;100.00
73941;BME280;62294;48.554;10.202;2023-07-02T11:14:31;93684.19;;;23.90;100.00
73941;BME280;62294;48.554;10.202;2023-07-02T11:17:03;93683.09;;;25.08;100.00
73941;BME280;62294;48.554;10.202;2023-07-02T11:19:33;93569.81;;;23.27;100.00
73941;BME280;62294;48.554;10.202;2023-07-02T11:22:00;93313.56;;;23.30;100.00
73941;BME280;62294;48.554;10.202;2023-07-02T11:26:58;93455.66;;;23.29;100.00
73941;BME280;62294;48.554;10.202;2023-07-02T11:29:25;93474.75;;;23.81;100.00
73941;BME280;62294;48.554;10.202;2023-07-02T11:31:52;93931.75;;;24.38;100.00
73941;BME280;62294;48.554;10.202;2023-07-02T11:34:21;94152.91;;;25.06;100.00
73941;BME280;62294;48.554;10.202;2023-07-02T11:36:50;94330.28;;;25.19;100.00
73941;BME280;62294;48.554;10.202;2023-07-02T11:39:20;94312.56;;;24.78;100.00
73941;BME280;62294;48.554;10.202;2023-07-02T11:41:47;94466.69;;;25.36;100.00
73941;BME280;62294;48.554;10.202;2023-07-02T11:44:14;94555.81;;;26.02;100.00
73941;BME280;62294;48.554;10.202;2023-07-02T11:46:42;94431.38;;;24.26;100.00
73941;BME280;62294;48.554;10.202;2023-07-02T11:49:09;94574.03;;;26.14;100.00
73941;BME280;62294;48.554;10.202;2023-07-02T11:51:36;94657.66;;;26.44;100.00
73941;BME280;62294;48.554;10.202;2023-07-02T11:54:04;94646.44;;;24.67;100.00
73941;BME280;62294;48.554;10.202;2023-07-02T11:56:30;94663.31;;;25.65;100.00
73941;BME280;62294;48.554;10.202;2023-07-02T11:58:57;94836.44;;;26.21;100.00
73941;BME280;62294;48.554;10.202;2023-07-02T12:01:24;94907.16;;;27.01;100.00
73941;BME280;62294;48.554;10.202;2023-07-02T12:03:51;94918.59;;;26.23;100.00
73941;BME280;62294;48.554;10.202;2023-07-02T12:06:18;94978.63;;;26.66;100.00
73941;BME280;62294;48.554;10.202;2023-07-02T12:08:45;95082.66;;;28.73;100.00
73941;BME280;62294;48.554;10.202;2023-07-02T12:11:11;95082.53;;;27.17;100.00
73941;BME280;62294;48.554;10.202;2023-07-02T12:13:38;95103.72;;;27.08;100.00
73941;BME280;62294;48.554;10.202;2023-07-02T12:16:04;95163.88;;;26.87;100.00
73941;BME280;62294;48.554;10.202;2023-07-02T12:18:31;95203.47;;;27.88;100.00
73941;BME280;62294;48.554;10.202;2023-07-02T12:20:57;95244.22;;;28.37;100.00
73941;BME280;62294;48.554;10.202;2023-07-02T12:23:24;95224.75;;;26.91;100.00
73941;BME280;62294;48.554;10.202;2023-07-02T12:25:50;95208.91;;;26.12;100.00
73941;BME280;62294;48.554;10.202;2023-07-02T12:28:17;95270.41;;;27.30;100.00
73941;BME280;62294;48.554;10.202;2023-07-02T12:30:44;95380.41;;;28.07;100.00
73941;BME280;62294;48.554;10.202;2023-07-02T12:33:11;95357.59;;;26.58;100.00
73941;BME280;62294;48.554;10.202;2023-07-02T12:35:37;95370.28;;;28.07;100.00
73941;BME280;62294;48.554;10.202;2023-07-02T12:38:04;95368.94;;;28.01;100.00
73941;BME280;62294;48.554;10.202;2023-07-02T12:40:33;95298.97;;;24.87;100.00
73941;BME280;62294;48.554;10.202;2023-07-02T12:43:00;95311.22;;;26.79;100.00
73941;BME280;62294;48.554;10.202;2023-07-02T12:45:26;95364.31;;;26.60;100.00
73941;BME280;62294;48.554;10.202;2023-07-02T12:47:53;95338.47;;;25.43;100.00
73941;BME280;62294;48.554;10.202;2023-07-02T12:50:20;95314.06;;;24.58;100.00
73941;BME280;62294;48.554;10.202;2023-07-02T12:52:46;95329.78;;;25.58;100.00
73941;BME280;62294;48.554;10.202;2023-07-02T12:55:13;95374.66;;;27.12;100.00
73941;BME280;62294;48.554;10.202;2023-07-02T12:57:39;95395.56;;;27.92;100.00
73941;BME280;62294;48.554;10.202;2023-07-02T13:00:06;95376.06;;;26.20;100.00